Time;durP1;ratioP1;P1;durP2;ratioP2;P2;SDS_P1;SDS_P2;PMS_P1;PMS_P2;Temp;Humidity;BMP_temperature;BMP_pressure;BME280_temperature;BME280_humidity;BME280_pressure;Samples;Min_cycle;Max_cycle;Signal;HPM_P1;HPM_P2
2022/01/15 00:01:46;;;;;;;43.50;19.83;;;-1.60;99.90;;;;;;4972665;28;20494;-74
2022/01/15 00:04:13;;;;;;;45.95;19.60;;;-1.60;99.90;;;;;;4975971;28;20045;-75
2022/01/15 00:06:40;;;;;;;37.63;18.00;;;-1.80;99.90;;;;;;4973290;28;20137;-74
2022/01/15 00:09:08;;;;;;;35.55;16.17;;;-1.60;99.90;;;;;;4972749;28;20516;-73
2022/01/15 00:11:37;;;;;;;37.75;15.77;;;-1.50;99.90;;;;;;4971717;28;20155;-74
2022/01/15 00:14:23;;;;;;;;;;;-1.70;99.90;;;;;;4976651;28;20469;-74
2022/01/15 00:16:56;;;;;;;43.15;17.73;;;-1.40;99.90;;;;;;4977548;28;19926;-73
2022/01/15 00:19:41;;;;;;;44.53;20.33;;;-1.70;99.90;;;;;;4976299;28;20105;-73
2022/01/15 00:22:10;;;;;;;36.35;17.33;;;-1.70;99.90;;;;;;4979400;28;20145;-74
2022/01/15 00:24:37;;;;;;;42.08;19.58;;;-1.40;99.90;;;;;;4984380;28;20526;-73
2022/01/15 00:27:05;;;;;;;43.83;18.85;;;-1.40;99.90;;;;;;4951225;28;20406;-73
2022/01/15 00:29:33;;;;;;;38.55;19.20;;;-1.60;99.90;;;;;;4980663;28;20050;-75
2022/01/15 00:32:01;;;;;;;47.05;20.70;;;-1.80;99.90;;;;;;4980863;28;20049;-74
2022/01/15 00:34:28;;;;;;;48.75;20.73;;;-1.50;99.90;;;;;;4975537;28;20114;-74
2022/01/15 00:36:56;;;;;;;35.00;17.45;;;-1.60;99.90;;;;;;4981717;28;20541;-74
2022/01/15 00:39:23;;;;;;;46.13;19.92;;;-1.70;99.90;;;;;;4976256;28;20097;-75
2022/01/15 00:41:50;;;;;;;38.53;19.17;;;-2.10;99.90;;;;;;4984547;28;20572;-74
2022/01/15 00:44:18;;;;;;;37.40;17.05;;;-1.90;99.90;;;;;;4984890;28;20042;-74
2022/01/15 00:46:45;;;;;;;40.15;18.50;;;-1.80;99.90;;;;;;4987330;28;20101;-74
2022/01/15 00:49:12;;;;;;;37.22;18.98;;;-1.80;99.90;;;;;;4986667;28;20517;-74
2022/01/15 00:51:39;;;;;;;45.28;19.67;;;-1.70;99.90;;;;;;4986150;28;20159;-74
2022/01/15 00:54:07;;;;;;;42.40;20.48;;;-1.70;99.90;;;;;;4986847;28;20126;-73
2022/01/15 00:56:34;;;;;;;43.95;18.20;;;-1.70;99.90;;;;;;4985862;28;20100;-74
2022/01/15 00:59:01;;;;;;;33.30;17.42;;;-1.50;99.90;;;;;;4987803;28;20043;-74
2022/01/15 01:01:28;;;;;;;41.25;19.08;;;-1.70;99.90;;;;;;4987719;28;20577;-74
2022/01/15 01:03:55;;;;;;;45.30;20.85;;;-1.70;99.90;;;;;;4990523;28;20038;-74
2022/01/15 01:06:22;;;;;;;41.80;20.98;;;-1.60;99.90;;;;;;4993140;28;20045;-74
2022/01/15 01:08:49;;;;;;;37.88;18.52;;;-1.40;99.90;;;;;;4993610;28;20245;-74
2022/01/15 01:11:23;;;;;;;36.40;19.13;;;-1.50;99.90;;;;;;4982275;28;20518;-74
2022/01/15 01:24:49;;;;;;;39.90;18.75;;;-1.90;99.90;;;;;;4989078;28;20048;-75
2022/01/15 01:28:06;;;;;;;33.20;13.32;;;-2.00;99.90;;;;;;4991204;28;20050;-74
2022/01/15 01:30:10;;;;;;;23.73;13.40;;;-2.00;99.90;;;;;;4979495;28;20621;-74
2022/01/15 01:35:16;;;;;;;27.85;14.52;;;;;;;;;;4982156;28;20042;-74
2022/01/15 01:37:49;;;;;;;24.67;13.10;;;;;;;;;;4981726;28;20117;-74
2022/01/15 01:40:21;;;;;;;36.25;17.50;;;;;;;;;;4993494;28;20066;-74
2022/01/15 01:43:29;;;;;;;37.88;18.08;;;;;;;;;;4965630;28;20097;-74
2022/01/15 01:45:44;;;;;;;30.88;17.30;;;;;;;;;;4989409;28;20061;-74
2022/01/15 01:48:12;;;;;;;33.00;17.67;;;;;;;;;;4984072;28;20073;-74
2022/01/15 01:50:39;;;;;;;27.40;15.20;;;-1.40;99.90;;;;;;4981329;28;20069;-74
2022/01/15 01:53:06;;;;;;;22.98;12.07;;;-1.70;99.90;;;;;;4989419;28;20438;-74
2022/01/15 01:55:34;;;;;;;28.20;13.95;;;;;;;;;;4992149;28;20490;-74
2022/01/15 01:58:02;;;;;;;37.25;18.00;;;;;;;;;;4990982;28;20125;-74
2022/01/15 02:00:30;;;;;;;29.42;17.15;;;;;;;;;;4988906;28;20050;-74
2022/01/15 02:02:58;;;;;;;31.63;17.02;;;;;;;;;;4986374;28;20054;-73
2022/01/15 02:05:25;;;;;;;38.20;20.13;;;-1.30;99.90;;;;;;4972201;28;20125;-74
2022/01/15 02:07:53;;;;;;;28.02;15.05;;;;;;;;;;4989272;28;20121;-74
2022/01/15 02:10:21;;;;;;;26.95;14.80;;;;;;;;;;4986267;28;20046;-74
2022/01/15 02:12:50;;;;;;;29.13;16.38;;;-1.60;99.90;;;;;;4988486;28;20129;-74
2022/01/15 02:15:21;;;;;;;26.27;13.82;;;-1.70;99.90;;;;;;4956216;28;20078;-75
2022/01/15 02:17:49;;;;;;;21.88;12.85;;;-2.00;99.90;;;;;;4954141;28;20151;-74
2022/01/15 02:25:48;;;;;;;24.95;14.10;;;-1.90;99.90;;;;;;4986255;28;20085;-74
2022/01/15 02:28:17;;;;;;;34.65;18.25;;;-2.00;99.90;;;;;;4988708;28;20078;-74
2022/01/15 02:30:44;;;;;;;27.05;14.98;;;-1.70;99.90;;;;;;4988383;28;20147;-74
2022/01/15 02:33:11;;;;;;;27.20;14.05;;;-2.10;99.90;;;;;;4991048;28;20503;-74
2022/01/15 02:35:38;;;;;;;45.65;21.05;;;-2.00;99.90;;;;;;4979275;28;20122;-74
2022/01/15 02:38:08;;;;;;;43.30;18.33;;;-2.10;99.90;;;;;;4990418;28;20117;-74
2022/01/15 02:40:36;;;;;;;31.30;16.75;;;-2.10;99.90;;;;;;4987611;28;20042;-74
2022/01/15 02:43:15;;;;;;;35.45;17.40;;;-2.00;99.90;;;;;;4990821;28;20141;-73
2022/01/15 02:45:45;;;;;;;36.10;18.95;;;-1.90;99.90;;;;;;4990737;28;20043;-73
2022/01/15 02:48:14;;;;;;;29.65;15.07;;;-2.00;99.90;;;;;;4990684;28;20092;-74
2022/01/15 02:50:43;;;;;;;33.83;15.80;;;-2.10;99.90;;;;;;4972654;28;20043;-73
2022/01/15 02:53:12;;;;;;;32.10;17.88;;;-2.30;99.90;;;;;;4991179;28;20081;-74
2022/01/15 02:55:53;;;;;;;35.25;16.85;;;-2.30;99.90;;;;;;4988740;28;20075;-74
2022/01/15 02:58:22;;;;;;;26.58;15.00;;;-2.30;99.90;;;;;;4989277;28;20070;-74
2022/01/15 03:00:51;;;;;;;29.17;14.48;;;-2.30;99.90;;;;;;4989450;28;20125;-74
2022/01/15 03:03:19;;;;;;;30.92;16.10;;;-2.10;99.90;;;;;;4993063;28;20528;-74
2022/01/15 03:05:46;;;;;;;36.13;19.20;;;-2.00;99.90;;;;;;4990441;28;20049;-74
2022/01/15 03:08:13;;;;;;;38.00;18.83;;;-1.90;99.90;;;;;;4991634;28;20049;-74
2022/01/15 03:10:40;;;;;;;35.67;18.38;;;-2.00;99.90;;;;;;4989907;28;20066;-74
2022/01/15 03:13:11;;;;;;;29.38;15.25;;;-2.00;99.90;;;;;;4985622;28;20133;-74
2022/01/15 03:15:40;;;;;;;33.30;17.40;;;-2.20;99.90;;;;;;4989862;28;20034;-74
2022/01/15 03:18:07;;;;;;;31.05;17.02;;;;;;;;;;4989242;28;20041;-74
2022/01/15 03:20:35;;;;;;;35.55;17.17;;;;;;;;;;4989485;28;20069;-74
2022/01/15 03:23:02;;;;;;;26.10;13.10;;;-2.10;99.90;;;;;;4988143;28;20548;-74
2022/01/15 03:25:30;;;;;;;27.02;14.88;;;;;;;;;;4988049;28;20499;-74
2022/01/15 03:27:57;;;;;;;30.35;14.45;;;;;;;;;;4988926;28;20137;-74
2022/01/15 03:30:24;;;;;;;37.38;19.83;;;-2.20;99.90;;;;;;4976124;28;20046;-73
2022/01/15 03:32:51;;;;;;;40.20;19.20;;;-2.00;99.90;;;;;;4970632;28;20050;-74
2022/01/15 03:35:18;;;;;;;34.78;17.17;;;-1.80;99.90;;;;;;4980967;28;20193;-74
2022/01/15 03:37:46;;;;;;;42.30;19.80;;;-1.90;99.90;;;;;;4986040;28;20043;-74
2022/01/15 03:40:17;;;;;;;35.85;18.20;;;-1.90;99.90;;;;;;4985325;28;20049;-73
2022/01/15 03:42:45;;;;;;;35.30;18.10;;;-2.00;99.90;;;;;;4978352;28;20145;-73
2022/01/15 03:45:14;;;;;;;38.80;19.05;;;-1.90;99.90;;;;;;4979811;28;20098;-73
2022/01/15 03:47:44;;;;;;;31.40;17.25;;;-1.90;99.90;;;;;;4972788;28;20144;-73
2022/01/15 03:50:12;;;;;;;35.05;16.05;;;-1.90;99.90;;;;;;4981505;28;20101;-74
2022/01/15 03:52:39;;;;;;;39.17;17.90;;;-1.70;99.90;;;;;;4970969;28;20085;-73
2022/01/15 03:55:08;;;;;;;48.95;18.35;;;-1.80;99.90;;;;;;4981640;28;20078;-73
2022/01/15 03:57:37;;;;;;;30.70;12.98;;;-1.80;99.90;;;;;;4976765;28;20114;-73
2022/01/15 04:00:06;;;;;;;33.53;16.05;;;-1.70;99.90;;;;;;4979248;28;20047;-73
2022/01/15 04:02:38;;;;;;;37.15;17.73;;;-1.60;99.90;;;;;;4984322;28;20528;-74
2022/01/15 04:05:05;;;;;;;33.95;17.10;;;-1.50;99.90;;;;;;5005087;28;20458;-74
2022/01/15 04:07:32;;;;;;;31.45;17.25;;;-1.50;99.90;;;;;;4989274;28;20062;-73
2022/01/15 04:09:59;;;;;;;31.77;16.25;;;-1.40;99.90;;;;;;4989420;28;20449;-74
2022/01/15 04:12:26;;;;;;;26.45;13.27;;;-1.60;99.90;;;;;;4989216;28;20100;-73
2022/01/15 04:14:54;;;;;;;40.03;18.05;;;;;;;;;;4989569;28;20062;-73
2022/01/15 04:17:21;;;;;;;23.23;13.57;;;;;;;;;;4987511;28;20038;-73
2022/01/15 04:19:48;;;;;;;28.30;13.65;;;-1.40;99.90;;;;;;4988627;28;20093;-74
2022/01/15 04:22:15;;;;;;;30.20;16.73;;;-1.40;99.90;;;;;;4988083;28;20417;-73
2022/01/15 04:24:42;;;;;;;33.78;16.83;;;-1.70;99.90;;;;;;4972752;28;20085;-74
2022/01/15 04:27:09;;;;;;;35.58;17.35;;;-1.60;99.90;;;;;;4988600;28;20108;-73
2022/01/15 04:29:36;;;;;;;33.45;17.58;;;-1.80;99.90;;;;;;4988863;28;20134;-73
2022/01/15 04:32:04;;;;;;;26.05;14.73;;;-1.60;99.90;;;;;;4985148;28;20138;-73
2022/01/15 04:34:31;;;;;;;28.00;15.25;;;-1.50;99.90;;;;;;4987424;28;20093;-73
2022/01/15 04:37:10;;;;;;;34.83;17.40;;;-1.50;99.90;;;;;;4986734;28;20466;-73
2022/01/15 04:39:37;;;;;;;33.95;17.42;;;-1.60;99.90;;;;;;4989614;28;20125;-74
2022/01/15 04:42:04;;;;;;;30.85;14.75;;;-1.40;99.90;;;;;;4985222;28;20050;-74
2022/01/15 04:44:31;;;;;;;33.28;16.77;;;-1.50;99.90;;;;;;4999291;28;20125;-74
2022/01/15 04:46:59;;;;;;;30.42;16.23;;;-1.60;99.90;;;;;;4988854;28;20042;-74
2022/01/15 04:49:26;;;;;;;30.48;15.93;;;-1.40;99.90;;;;;;4988642;28;20391;-74
2022/01/15 04:51:53;;;;;;;36.83;17.95;;;-1.70;99.90;;;;;;4985945;28;20121;-74
2022/01/15 04:54:20;;;;;;;36.60;17.65;;;-1.70;99.90;;;;;;4986413;28;20375;-74
2022/01/15 04:56:47;;;;;;;38.22;18.50;;;-1.90;99.90;;;;;;4987303;28;20125;-73
2022/01/15 04:59:14;;;;;;;24.58;13.38;;;-1.90;99.90;;;;;;4987714;28;20508;-74
2022/01/15 05:01:41;;;;;;;31.20;17.65;;;-2.10;99.90;;;;;;4981924;28;20207;-74
2022/01/15 05:04:08;;;;;;;26.40;14.40;;;-1.80;99.90;;;;;;4987243;28;20046;-73
2022/01/15 05:06:35;;;;;;;28.20;15.23;;;-1.70;99.90;;;;;;4989168;28;20133;-73
2022/01/15 05:09:06;;;;;;;29.10;15.13;;;-1.30;99.90;;;;;;4985190;28;20054;-73
2022/01/15 05:11:55;;;;;;;29.98;15.13;;;-1.60;99.90;;;;;;4983867;28;20057;-74
2022/01/15 05:14:22;;;;;;;29.17;15.20;;;-1.50;99.90;;;;;;4984080;28;20042;-74
2022/01/15 05:16:49;;;;;;;31.45;15.02;;;-1.70;99.90;;;;;;4989026;28;20217;-73
2022/01/15 05:19:16;;;;;;;33.00;16.58;;;-1.70;99.90;;;;;;4985461;28;20038;-73
2022/01/15 05:21:43;;;;;;;29.80;15.55;;;-1.60;99.90;;;;;;4984314;28;20133;-74
2022/01/15 05:24:10;;;;;;;32.97;16.40;;;-1.60;99.90;;;;;;4971086;28;20045;-73
2022/01/15 05:26:37;;;;;;;34.17;16.50;;;-1.60;99.90;;;;;;4986656;28;20142;-74
2022/01/15 05:29:04;;;;;;;31.80;15.98;;;-1.50;99.90;;;;;;4986789;28;20502;-73
2022/01/15 05:31:31;;;;;;;32.05;15.98;;;-1.50;99.90;;;;;;4983709;28;20077;-73
2022/01/15 05:33:59;;;;;;;31.67;15.70;;;-1.50;99.90;;;;;;4984727;28;20410;-74
2022/01/15 05:36:26;;;;;;;27.35;15.20;;;-1.50;99.90;;;;;;4988017;28;20078;-74
2022/01/15 05:38:53;;;;;;;30.05;16.35;;;-1.40;99.90;;;;;;4988040;28;20084;-72
2022/01/15 05:41:20;;;;;;;33.55;16.17;;;-1.50;99.90;;;;;;4984135;28;20117;-74
2022/01/15 05:43:47;;;;;;;26.35;14.82;;;-1.40;99.90;;;;;;4984302;28;20055;-73
2022/01/15 05:46:14;;;;;;;31.10;17.00;;;-1.60;99.90;;;;;;4985053;28;20050;-73
2022/01/15 05:48:41;;;;;;;25.17;13.23;;;-1.60;99.90;;;;;;4991932;28;20506;-73
2022/01/15 05:51:08;;;;;;;28.33;15.00;;;-1.50;99.90;;;;;;4990715;28;20499;-73
2022/01/15 05:53:35;;;;;;;29.25;15.60;;;-1.30;99.90;;;;;;4985607;28;20073;-73
2022/01/15 05:56:02;;;;;;;31.45;14.13;;;-1.60;99.90;;;;;;4986087;28;20042;-73
2022/01/15 05:58:29;;;;;;;29.27;15.35;;;-1.40;99.90;;;;;;4977402;28;20038;-73
2022/01/15 06:00:56;;;;;;;25.45;13.70;;;-1.40;99.90;;;;;;4989435;28;20045;-73
2022/01/15 06:03:23;;;;;;;26.20;15.20;;;-1.20;99.90;;;;;;4991446;28;20425;-73
2022/01/15 06:05:50;;;;;;;26.17;14.65;;;-1.30;99.90;;;;;;4988090;28;20525;-73
2022/01/15 06:08:17;;;;;;;31.98;16.05;;;-1.30;99.90;;;;;;4989474;28;20534;-74
2022/01/15 06:10:44;;;;;;;31.60;16.65;;;-1.40;99.90;;;;;;4987198;28;20042;-74
2022/01/15 06:13:11;;;;;;;25.90;13.00;;;-1.50;99.90;;;;;;4987820;28;20046;-73
2022/01/15 06:15:38;;;;;;;36.45;17.20;;;-1.70;99.90;;;;;;4987119;28;20094;-73
2022/01/15 06:18:05;;;;;;;32.00;16.77;;;-1.50;99.90;;;;;;4989841;28;20466;-74
2022/01/15 06:20:32;;;;;;;29.60;14.95;;;-1.50;99.90;;;;;;4987044;28;20518;-73
2022/01/15 06:22:59;;;;;;;29.70;16.10;;;-1.50;99.90;;;;;;4985455;28;20117;-74
2022/01/15 06:25:26;;;;;;;32.95;16.65;;;-1.40;99.90;;;;;;4977587;28;20096;-75
2022/01/15 06:27:53;;;;;;;28.83;16.02;;;-1.30;99.90;;;;;;4978191;28;20050;-74
2022/01/15 06:30:20;;;;;;;35.15;17.42;;;-1.40;99.90;;;;;;4980193;28;20039;-73
2022/01/15 06:32:47;;;;;;;34.83;16.92;;;-1.50;99.90;;;;;;4975210;28;20547;-74
2022/01/15 06:35:17;;;;;;;25.70;14.48;;;-1.40;99.90;;;;;;4988002;28;20062;-74
2022/01/15 06:37:47;;;;;;;28.00;15.05;;;-1.30;99.90;;;;;;4988967;28;20061;-74
2022/01/15 06:40:15;;;;;;;35.88;17.08;;;-1.50;99.90;;;;;;4988940;28;20154;-74
2022/01/15 06:42:43;;;;;;;26.80;14.48;;;-1.50;99.90;;;;;;4991047;28;20576;-74
2022/01/15 06:45:10;;;;;;;31.58;15.98;;;-1.50;99.90;;;;;;4991662;28;20088;-74
2022/01/15 06:47:38;;;;;;;31.05;16.45;;;-1.50;99.90;;;;;;4973046;28;20051;-73
2022/01/15 06:50:06;;;;;;;30.10;16.27;;;-1.30;99.90;;;;;;4989359;28;20129;-74
2022/01/15 06:52:37;;;;;;;30.83;16.13;;;-1.40;99.90;;;;;;4991554;28;20073;-74
2022/01/15 06:55:07;;;;;;;27.50;16.15;;;-1.50;99.90;;;;;;4991492;28;20089;-74
2022/01/15 06:57:34;;;;;;;25.08;13.80;;;-1.50;99.90;;;;;;4991247;28;20150;-74
2022/01/15 07:00:02;;;;;;;30.45;15.82;;;-1.60;99.90;;;;;;4990249;28;20069;-74
2022/01/15 07:02:30;;;;;;;24.08;14.85;;;-1.50;99.90;;;;;;4990323;28;20137;-74
2022/01/15 07:04:57;;;;;;;26.42;14.45;;;-1.30;99.90;;;;;;4988751;28;20054;-74
2022/01/15 07:07:24;;;;;;;27.40;14.93;;;-1.30;99.90;;;;;;4988056;28;20056;-74
2022/01/15 07:09:51;;;;;;;28.02;16.75;;;-1.50;99.90;;;;;;4982793;28;20137;-74
2022/01/15 07:12:18;;;;;;;29.83;16.02;;;-1.40;99.90;;;;;;4988591;28;20198;-74
2022/01/15 07:14:45;;;;;;;28.08;14.73;;;-1.40;99.90;;;;;;4990945;28;20137;-74
2022/01/15 07:17:12;;;;;;;29.20;16.17;;;-1.50;99.90;;;;;;4989339;28;20064;-74
2022/01/15 07:19:39;;;;;;;30.35;16.58;;;-1.30;99.90;;;;;;4989600;28;20066;-74
2022/01/15 07:22:07;;;;;;;27.20;16.05;;;-1.20;99.90;;;;;;4988899;28;20034;-74
2022/01/15 07:24:34;;;;;;;25.45;14.55;;;-1.30;99.90;;;;;;4989113;28;20458;-74
2022/01/15 07:27:02;;;;;;;30.08;17.30;;;-1.30;99.90;;;;;;4986570;28;20042;-74
2022/01/15 07:29:30;;;;;;;26.40;15.88;;;-1.30;99.90;;;;;;4990120;28;20065;-74
2022/01/15 07:31:58;;;;;;;28.50;15.40;;;-1.40;99.90;;;;;;4988983;28;20065;-74
2022/01/15 07:34:25;;;;;;;30.02;16.92;;;-1.30;99.90;;;;;;4989241;28;20051;-74
2022/01/15 07:36:54;;;;;;;31.38;16.23;;;-1.30;99.90;;;;;;4989345;28;20285;-74
2022/01/15 07:39:21;;;;;;;28.95;15.68;;;-1.30;99.90;;;;;;4986915;28;20445;-74
2022/01/15 07:41:48;;;;;;;27.83;16.65;;;-1.10;99.90;;;;;;4989090;28;20035;-74
2022/01/15 07:44:15;;;;;;;24.73;13.55;;;-1.20;99.90;;;;;;4988204;28;20516;-74
2022/01/15 07:46:42;;;;;;;25.85;15.23;;;-0.90;99.90;;;;;;4984454;28;20162;-74
2022/01/15 07:49:09;;;;;;;29.73;15.57;;;-1.00;99.90;;;;;;4988243;28;20130;-74
2022/01/15 07:51:36;;;;;;;30.52;15.77;;;-1.00;99.90;;;;;;4980897;28;20252;-74
2022/01/15 07:54:04;;;;;;;26.90;15.15;;;-0.90;99.90;;;;;;4987157;28;20138;-74
2022/01/15 07:56:31;;;;;;;28.23;15.98;;;-0.70;99.90;;;;;;4988172;28;20129;-73
2022/01/15 07:58:58;;;;;;;32.70;16.08;;;-0.60;99.90;;;;;;5001518;28;20478;-74
2022/01/15 08:01:25;;;;;;;24.20;13.55;;;-0.60;99.90;;;;;;4986857;28;20129;-73
2022/01/15 08:03:52;;;;;;;31.23;16.85;;;-0.60;99.90;;;;;;4987448;28;20057;-74
2022/01/15 08:06:19;;;;;;;34.00;16.48;;;-0.50;99.90;;;;;;4986355;28;20038;-74
2022/01/15 08:08:46;;;;;;;24.40;12.35;;;-0.70;99.90;;;;;;4987906;28;20125;-74
2022/01/15 08:11:13;;;;;;;29.30;15.05;;;-0.60;99.90;;;;;;4986831;28;20065;-74
2022/01/15 08:13:40;;;;;;;32.75;16.27;;;-0.90;99.90;;;;;;4985171;28;20462;-74
2022/01/15 08:16:08;;;;;;;29.58;14.57;;;-0.60;99.90;;;;;;4986393;28;20038;-74
2022/01/15 08:18:36;;;;;;;27.88;14.95;;;-0.70;99.90;;;;;;4988377;28;20046;-74
2022/01/15 08:21:05;;;;;;;31.80;16.30;;;-0.60;99.90;;;;;;4983929;28;20157;-74
2022/01/15 08:23:34;;;;;;;34.55;16.35;;;-0.80;99.90;;;;;;4985643;28;20046;-74
2022/01/15 08:26:01;;;;;;;33.45;16.60;;;-0.80;99.90;;;;;;4987934;28;20045;-74
2022/01/15 08:28:28;;;;;;;33.92;15.88;;;-0.60;99.90;;;;;;4988134;28;20449;-74
2022/01/15 08:30:54;;;;;;;37.50;18.73;;;-1.30;99.90;;;;;;4985106;28;20192;-74
2022/01/15 08:33:22;;;;;;;34.90;16.92;;;-1.00;99.90;;;;;;4986474;28;20084;-74
2022/01/15 08:35:49;;;;;;;28.08;14.35;;;-1.00;99.90;;;;;;4988140;28;20122;-74
2022/01/15 08:38:16;;;;;;;35.50;18.25;;;-0.70;99.90;;;;;;4985415;28;20125;-75
2022/01/15 08:40:43;;;;;;;38.55;17.80;;;-0.50;99.90;;;;;;4981361;28;20117;-74
2022/01/15 08:43:10;;;;;;;34.60;16.17;;;-0.50;99.90;;;;;;4985318;28;20565;-74
2022/01/15 08:45:38;;;;;;;30.67;14.57;;;-0.50;99.90;;;;;;4987936;28;20046;-74
2022/01/15 08:48:07;;;;;;;28.35;14.43;;;-0.30;99.90;;;;;;4987668;28;20105;-74
2022/01/15 08:50:35;;;;;;;33.38;16.58;;;-0.40;99.90;;;;;;4985726;28;20095;-74
2022/01/15 08:53:06;;;;;;;30.70;15.93;;;-0.30;99.90;;;;;;4980720;28;20054;-74
2022/01/15 08:55:39;;;;;;;32.67;16.05;;;-0.40;99.90;;;;;;4982686;28;20130;-75
2022/01/15 08:58:06;;;;;;;28.48;14.00;;;-0.80;99.90;;;;;;4985946;28;20122;-75
2022/01/15 09:00:33;;;;;;;37.35;17.17;;;-1.20;99.90;;;;;;4983353;28;20062;-73
2022/01/15 09:03:00;;;;;;;31.25;16.67;;;-0.70;99.90;;;;;;4986594;28;20117;-74
2022/01/15 09:05:27;;;;;;;32.58;16.55;;;-0.80;99.90;;;;;;4987114;28;20061;-74
2022/01/15 09:07:56;;;;;;;37.10;18.00;;;-0.40;99.90;;;;;;4987824;28;20525;-74
2022/01/15 09:10:23;;;;;;;41.75;18.77;;;;;;;;;;4984573;28;20060;-74
2022/01/15 09:12:50;;;;;;;35.53;17.02;;;-0.20;99.90;;;;;;4984070;28;20132;-74
2022/01/15 09:15:28;;;;;;;31.98;15.65;;;-0.70;99.90;;;;;;4981643;28;20761;-73
2022/01/15 09:17:55;;;;;;;26.02;13.68;;;-0.60;99.90;;;;;;4985354;28;20108;-74
2022/01/15 09:20:22;;;;;;;35.83;16.73;;;-0.20;99.90;;;;;;4985454;28;20168;-74
2022/01/15 09:22:49;;;;;;;35.80;18.35;;;-0.10;99.90;;;;;;4989566;28;20093;-74
2022/01/15 09:25:17;;;;;;;35.90;16.75;;;-0.30;99.90;;;;;;4992938;28;20050;-74
2022/01/15 09:30:30;;;;;;;39.67;20.60;;;-0.40;99.90;;;;;;4980335;28;20407;-74
2022/01/15 09:32:58;;;;;;;34.65;18.73;;;-0.10;99.90;;;;;;4992450;28;20074;-74
2022/01/15 09:35:27;;;;;;;33.90;16.73;;;0.00;99.90;;;;;;4991377;28;20034;-74
2022/01/15 09:37:55;;;;;;;38.45;18.90;;;-0.50;99.90;;;;;;4992769;28;20034;-74
2022/01/15 09:40:25;;;;;;;39.05;19.73;;;-0.20;99.90;;;;;;4990960;28;20101;-74
2022/01/15 09:42:52;;;;;;;33.35;16.70;;;-0.10;99.90;;;;;;4989969;28;20116;-74
2022/01/15 09:45:20;;;;;;;36.42;18.88;;;-0.50;99.90;;;;;;4950554;29;20495;-74
2022/01/15 09:48:00;;;;;;;39.22;19.13;;;-0.60;99.90;;;;;;4936108;29;20117;-74
2022/01/15 09:50:29;;;;;;;38.88;20.13;;;-0.40;99.90;;;;;;4950962;29;20551;-74
2022/01/15 09:52:57;;;;;;;33.25;16.90;;;0.00;99.90;;;;;;4950844;29;20055;-74
2022/01/15 09:55:25;;;;;;;34.65;17.85;;;0.10;99.90;;;;;;4934884;29;20512;-74
2022/01/15 09:57:53;;;;;;;40.42;18.88;;;0.20;99.90;;;;;;4947956;28;20079;-74
2022/01/15 10:00:22;;;;;;;33.45;16.42;;;0.20;99.90;;;;;;4932526;29;20078;-74
2022/01/15 10:02:51;;;;;;;34.05;17.65;;;0.00;99.90;;;;;;4949461;29;20448;-74
2022/01/15 10:05:18;;;;;;;34.92;17.00;;;0.20;99.90;;;;;;4950200;29;20248;-74
2022/01/15 10:08:09;;;;;;;31.75;15.73;;;0.40;99.90;;;;;;4947108;29;20063;-74
2022/01/15 10:10:38;;;;;;;37.17;18.30;;;0.40;99.90;;;;;;4942388;29;20102;-74
2022/01/15 10:13:21;;;;;;;32.90;16.45;;;0.20;99.90;;;;;;4934396;29;20499;-74
2022/01/15 10:16:09;;;;;;;32.90;17.08;;;0.40;99.90;;;;;;4959001;28;20473;-74
2022/01/15 10:18:45;;;;;;;33.85;15.32;;;0.30;99.90;;;;;;4990250;28;20102;-73
2022/01/15 10:21:19;;;;;;;37.22;18.80;;;0.30;99.90;;;;;;4990428;28;20034;-74
2022/01/15 10:23:52;;;;;;;34.92;17.60;;;-0.20;99.90;;;;;;4991255;28;20184;-74
2022/01/15 10:26:23;;;;;;;30.85;15.63;;;-0.10;99.90;;;;;;4992288;28;20101;-74
2022/01/15 10:28:49;;;;;;;29.45;16.23;;;0.00;99.90;;;;;;4992753;28;20046;-74
2022/01/15 10:31:25;;;;;;;28.98;14.50;;;0.10;99.90;;;;;;4984409;28;20074;-74
2022/01/15 10:33:54;;;;;;;30.60;16.13;;;0.20;99.90;;;;;;4987196;28;20038;-73
2022/01/15 10:36:29;;;;;;;31.35;16.38;;;0.30;99.90;;;;;;4989303;28;20482;-73
2022/01/15 10:39:20;;;;;;;25.70;14.25;;;0.30;99.90;;;;;;4990533;28;20404;-74
2022/01/15 10:41:48;;;;;;;29.73;15.15;;;0.50;99.90;;;;;;4990785;28;20038;-74
2022/01/15 10:44:35;;;;;;;31.92;15.98;;;;;;;;;;4989888;28;20046;-75
2022/01/15 10:47:12;;;;;;;26.83;15.07;;;0.70;99.90;;;;;;4989457;28;20050;-74
2022/01/15 10:49:40;;;;;;;29.92;16.23;;;0.60;99.90;;;;;;4995744;28;20121;-74
2022/01/15 10:52:17;;;;;;;35.92;17.80;;;0.70;99.90;;;;;;4986635;28;20053;-74
2022/01/15 10:54:50;;;;;;;32.90;17.77;;;0.60;99.90;;;;;;4986549;28;20046;-74
2022/01/15 10:57:23;;;;;;;36.78;18.92;;;0.40;99.90;;;;;;4942625;28;20050;-74
2022/01/15 11:00:13;;;;;;;34.10;19.58;;;0.50;99.90;;;;;;4963110;28;20049;-74
2022/01/15 11:02:52;;;;;;;37.10;19.40;;;0.40;99.90;;;;;;4956972;28;20455;-74
2022/01/15 11:05:20;;;;;;;35.03;18.27;;;0.20;99.90;;;;;;4960944;28;20530;-74
2022/01/15 11:07:51;;;;;;;37.25;18.48;;;0.40;99.90;;;;;;4940025;28;20090;-74
2022/01/15 11:10:19;;;;;;;50.70;24.58;;;0.60;99.90;;;;;;4942942;28;20074;-74
2022/01/15 11:12:46;;;;;;;35.22;17.65;;;0.60;99.90;;;;;;4942428;28;20072;-74
2022/01/15 11:15:14;;;;;;;32.80;18.17;;;-0.10;99.90;;;;;;4963518;28;20050;-73
2022/01/15 11:17:41;;;;;;;37.22;19.92;;;0.20;99.90;;;;;;4933547;29;20116;-74
2022/01/15 11:20:11;;;;;;;33.75;17.00;;;0.30;99.90;;;;;;4933482;28;20054;-74
2022/01/15 11:22:41;;;;;;;32.80;17.98;;;0.30;99.90;;;;;;4938790;28;20134;-74
2022/01/15 11:25:12;;;;;;;33.65;19.27;;;0.30;99.90;;;;;;4958410;28;20559;-73
2022/01/15 11:27:40;;;;;;;37.27;19.93;;;0.40;99.90;;;;;;4946337;28;20051;-74
2022/01/15 11:30:08;;;;;;;30.83;17.77;;;0.60;99.90;;;;;;4975123;28;20149;-74
2022/01/15 11:32:35;;;;;;;34.10;18.63;;;0.50;99.90;;;;;;4982907;28;20392;-74
2022/01/15 11:35:08;;;;;;;33.72;18.65;;;0.30;99.90;;;;;;4966235;28;20053;-74
2022/01/15 11:37:42;;;;;;;31.40;17.92;;;0.50;99.90;;;;;;4981615;28;20066;-74
2022/01/15 11:40:55;;;;;;;34.33;19.65;;;0.70;99.90;;;;;;4977516;28;20055;-73
2022/01/15 11:43:25;;;;;;;42.72;25.30;;;0.70;99.90;;;;;;4977190;28;20078;-73
2022/01/15 11:45:54;;;;;;;36.78;19.52;;;0.70;99.90;;;;;;4979600;28;20053;-73
2022/01/15 11:48:30;;;;;;;32.30;17.88;;;0.60;99.90;;;;;;4976206;28;21026;-73
2022/01/15 11:51:15;;;;;;;34.33;20.30;;;0.80;99.90;;;;;;4975780;28;20046;-73
2022/01/15 11:53:54;;;;;;;36.25;19.67;;;0.70;99.90;;;;;;4979214;28;20506;-73
2022/01/15 11:56:36;;;;;;;38.85;22.15;;;0.50;99.90;;;;;;4971047;28;20093;-73
2022/01/15 11:59:29;;;;;;;34.55;18.67;;;0.80;99.90;;;;;;4979047;28;20042;-73
2022/01/15 12:02:05;;;;;;;36.72;20.00;;;1.00;99.90;;;;;;4924038;29;20050;-73
2022/01/15 12:04:37;;;;;;;32.92;18.40;;;0.90;99.90;;;;;;4934981;29;20058;-73
2022/01/15 12:07:04;;;;;;;;;;;0.90;99.90;;;;;;4932626;29;20055;-73
2022/01/15 12:09:38;;;;;;;35.55;17.67;;;0.60;99.90;;;;;;4934640;29;19930;-74
2022/01/15 12:12:17;;;;;;;41.05;21.33;;;0.50;99.90;;;;;;4934895;29;20047;-74
2022/01/15 12:14:48;;;;;;;37.00;19.25;;;0.50;99.90;;;;;;4914713;29;20057;-74
2022/01/15 12:18:02;;;;;;;38.78;19.17;;;0.60;99.90;;;;;;4922312;29;20039;-74
2022/01/15 12:20:35;;;;;;;36.20;20.10;;;0.50;99.90;;;;;;4919101;29;20052;-74
2022/01/15 12:23:22;;;;;;;37.00;18.95;;;0.80;99.90;;;;;;4923627;29;20607;-74
2022/01/15 12:25:55;;;;;;;34.05;18.27;;;1.00;99.90;;;;;;4922142;29;20065;-76
2022/01/15 12:28:25;;;;;;;38.53;21.42;;;0.30;99.90;;;;;;4938060;28;20610;-76
2022/01/15 12:30:56;;;;;;;34.55;19.98;;;0.40;99.90;;;;;;4940240;29;20470;-75
2022/01/15 12:33:23;;;;;;;35.00;19.85;;;0.30;99.90;;;;;;4943713;28;20050;-74
2022/01/15 12:35:57;;;;;;;29.33;16.73;;;0.20;99.90;;;;;;4938340;29;20055;-74
2022/01/15 12:38:29;;;;;;;38.33;19.60;;;0.20;99.90;;;;;;4956042;28;20054;-74
2022/01/15 12:41:01;;;;;;;38.38;20.48;;;0.40;99.90;;;;;;4977117;28;20122;-74
2022/01/15 12:43:29;;;;;;;34.00;21.20;;;0.40;99.90;;;;;;4981124;28;20460;-73
2022/01/15 12:45:59;;;;;;;34.55;19.00;;;0.60;99.90;;;;;;4980279;28;20082;-74
2022/01/15 12:48:28;;;;;;;33.63;20.15;;;0.70;99.90;;;;;;4977892;28;20141;-73
2022/01/15 12:50:58;;;;;;;33.72;18.95;;;0.80;99.90;;;;;;4982782;28;20062;-74
2022/01/15 12:53:30;;;;;;;38.17;20.65;;;0.50;99.90;;;;;;4982537;28;20577;-73
2022/01/15 12:55:57;;;;;;;35.22;19.38;;;0.60;99.90;;;;;;4983479;28;20093;-73
2022/01/15 12:58:27;;;;;;;31.40;17.83;;;0.50;99.90;;;;;;4985129;28;20050;-73
2022/01/15 13:00:55;;;;;;;32.90;19.83;;;0.40;99.90;;;;;;4980515;28;20121;-73
2022/01/15 13:03:27;;;;;;;31.50;18.70;;;0.30;99.90;;;;;;4985798;28;20056;-74
2022/01/15 13:05:58;;;;;;;32.50;19.85;;;0.40;99.90;;;;;;4996216;28;20498;-73
2022/01/15 13:08:29;;;;;;;30.95;19.30;;;0.30;99.90;;;;;;4984569;28;20050;-74
2022/01/15 13:11:03;;;;;;;36.92;21.30;;;0.30;99.90;;;;;;4980009;28;20337;-74